sensor_id;sensor_type;location;lat;lon;timestamp;P1;durP1;ratioP1;P2;durP2;ratioP2
9156;SDS011;4613;48.392;9.998;2022-08-02T00:01:21;3.43;;;2.57;;
9156;SDS011;4613;48.392;9.998;2022-08-02T00:03:52;3.00;;;2.70;;
9156;SDS011;4613;48.392;9.998;2022-08-02T00:06:23;5.30;;;2.20;;
9156;SDS011;4613;48.392;9.998;2022-08-02T00:08:53;3.53;;;2.50;;
9156;SDS011;4613;48.392;9.998;2022-08-02T00:11:24;2.30;;;2.10;;
9156;SDS011;4613;48.392;9.998;2022-08-02T00:13:55;2.80;;;2.47;;
9156;SDS011;4613;48.392;9.998;2022-08-02T00:16:26;2.30;;;2.10;;
9156;SDS011;4613;48.392;9.998;2022-08-02T00:18:57;2.27;;;2.07;;
9156;SDS011;4613;48.392;9.998;2022-08-02T00:21:28;3.63;;;1.90;;
9156;SDS011;4613;48.392;9.998;2022-08-02T00:23:59;2.30;;;2.10;;
9156;SDS011;4613;48.392;9.998;2022-08-02T00:26:30;3.23;;;2.00;;
9156;SDS011;4613;48.392;9.998;2022-08-02T00:29:02;3.73;;;2.10;;
9156;SDS011;4613;48.392;9.998;2022-08-02T00:31:33;2.47;;;2.27;;
9156;SDS011;4613;48.392;9.998;2022-08-02T00:34:04;2.53;;;2.20;;
9156;SDS011;4613;48.392;9.998;2022-08-02T00:36:35;2.43;;;2.23;;
9156;SDS011;4613;48.392;9.998;2022-08-02T00:39:06;3.00;;;2.10;;
9156;SDS011;4613;48.392;9.998;2022-08-02T00:41:43;2.47;;;2.27;;
9156;SDS011;4613;48.392;9.998;2022-08-02T00:44:19;2.50;;;2.30;;
9156;SDS011;4613;48.392;9.998;2022-08-02T00:46:50;3.77;;;2.50;;
9156;SDS011;4613;48.392;9.998;2022-08-02T00:49:21;3.40;;;2.53;;
9156;SDS011;4613;48.392;9.998;2022-08-02T00:51:52;3.47;;;2.37;;
9156;SDS011;4613;48.392;9.998;2022-08-02T00:54:23;3.13;;;2.30;;
9156;SDS011;4613;48.392;9.998;2022-08-02T00:56:54;2.97;;;2.50;;
9156;SDS011;4613;48.392;9.998;2022-08-02T00:59:25;3.60;;;2.40;;
9156;SDS011;4613;48.392;9.998;2022-08-02T01:01:56;3.23;;;2.33;;
9156;SDS011;4613;48.392;9.998;2022-08-02T01:04:27;2.67;;;2.20;;
9156;SDS011;4613;48.392;9.998;2022-08-02T01:06:58;4.17;;;2.40;;
9156;SDS011;4613;48.392;9.998;2022-08-02T01:09:30;2.20;;;2.00;;
9156;SDS011;4613;48.392;9.998;2022-08-02T01:12:01;2.43;;;2.10;;
9156;SDS011;4613;48.392;9.998;2022-08-02T01:14:32;4.40;;;2.40;;
9156;SDS011;4613;48.392;9.998;2022-08-02T01:20:07;3.03;;;1.80;;
9156;SDS011;4613;48.392;9.998;2022-08-02T01:25:28;3.50;;;2.17;;
9156;SDS011;4613;48.392;9.998;2022-08-02T01:28:38;2.00;;;1.90;;
9156;SDS011;4613;48.392;9.998;2022-08-02T01:36:55;2.40;;;1.83;;
9156;SDS011;4613;48.392;9.998;2022-08-02T01:39:30;2.10;;;1.90;;
9156;SDS011;4613;48.392;9.998;2022-08-02T01:42:04;3.67;;;2.30;;
9156;SDS011;4613;48.392;9.998;2022-08-02T01:44:37;2.87;;;2.53;;
9156;SDS011;4613;48.392;9.998;2022-08-02T01:47:15;4.00;;;2.37;;
9156;SDS011;4613;48.392;9.998;2022-08-02T01:49:51;3.90;;;2.57;;
9156;SDS011;4613;48.392;9.998;2022-08-02T01:52:28;2.70;;;2.50;;
9156;SDS011;4613;48.392;9.998;2022-08-02T01:55:44;2.90;;;2.60;;
9156;SDS011;4613;48.392;9.998;2022-08-02T01:57:58;3.70;;;3.13;;
9156;SDS011;4613;48.392;9.998;2022-08-02T02:00:35;3.97;;;3.30;;
9156;SDS011;4613;48.392;9.998;2022-08-02T02:03:12;4.83;;;4.17;;
9156;SDS011;4613;48.392;9.998;2022-08-02T02:05:48;4.77;;;3.77;;
9156;SDS011;4613;48.392;9.998;2022-08-02T02:08:28;6.60;;;4.27;;
9156;SDS011;4613;48.392;9.998;2022-08-02T02:11:03;6.93;;;3.90;;
9156;SDS011;4613;48.392;9.998;2022-08-02T02:13:36;4.83;;;3.53;;
9156;SDS011;4613;48.392;9.998;2022-08-02T02:16:10;6.20;;;4.00;;
9156;SDS011;4613;48.392;9.998;2022-08-02T02:18:42;6.07;;;3.33;;
9156;SDS011;4613;48.392;9.998;2022-08-02T02:21:16;4.87;;;4.00;;
9156;SDS011;4613;48.392;9.998;2022-08-02T02:23:48;7.60;;;4.27;;
9156;SDS011;4613;48.392;9.998;2022-08-02T02:26:18;7.27;;;5.73;;
9156;SDS011;4613;48.392;9.998;2022-08-02T02:28:49;6.20;;;5.10;;
9156;SDS011;4613;48.392;9.998;2022-08-02T02:31:23;7.33;;;5.03;;
9156;SDS011;4613;48.392;9.998;2022-08-02T02:33:57;5.73;;;4.70;;
9156;SDS011;4613;48.392;9.998;2022-08-02T02:36:32;7.47;;;4.90;;
9156;SDS011;4613;48.392;9.998;2022-08-02T02:39:05;8.23;;;5.50;;
9156;SDS011;4613;48.392;9.998;2022-08-02T02:41:37;10.80;;;6.60;;
9156;SDS011;4613;48.392;9.998;2022-08-02T02:44:12;6.37;;;5.77;;
9156;SDS011;4613;48.392;9.998;2022-08-02T02:46:47;8.30;;;6.87;;
9156;SDS011;4613;48.392;9.998;2022-08-02T02:49:22;10.13;;;7.97;;
9156;SDS011;4613;48.392;9.998;2022-08-02T02:51:53;10.30;;;7.70;;
9156;SDS011;4613;48.392;9.998;2022-08-02T02:54:26;9.47;;;7.57;;
9156;SDS011;4613;48.392;9.998;2022-08-02T02:56:58;11.53;;;7.93;;
9156;SDS011;4613;48.392;9.998;2022-08-02T02:59:34;12.00;;;8.83;;
9156;SDS011;4613;48.392;9.998;2022-08-02T03:02:05;15.40;;;8.50;;
9156;SDS011;4613;48.392;9.998;2022-08-02T03:04:39;9.33;;;7.20;;
9156;SDS011;4613;48.392;9.998;2022-08-02T03:07:11;9.20;;;7.43;;
9156;SDS011;4613;48.392;9.998;2022-08-02T03:09:42;10.03;;;7.30;;
9156;SDS011;4613;48.392;9.998;2022-08-02T03:12:13;10.33;;;7.83;;
9156;SDS011;4613;48.392;9.998;2022-08-02T03:14:44;11.13;;;7.47;;
9156;SDS011;4613;48.392;9.998;2022-08-02T03:17:15;9.23;;;7.57;;
9156;SDS011;4613;48.392;9.998;2022-08-02T03:19:46;8.30;;;6.80;;
9156;SDS011;4613;48.392;9.998;2022-08-02T03:22:17;9.70;;;6.70;;
9156;SDS011;4613;48.392;9.998;2022-08-02T03:24:48;10.37;;;6.70;;
9156;SDS011;4613;48.392;9.998;2022-08-02T03:27:19;7.13;;;6.00;;
9156;SDS011;4613;48.392;9.998;2022-08-02T03:29:50;7.40;;;6.40;;
9156;SDS011;4613;48.392;9.998;2022-08-02T03:32:21;8.87;;;6.20;;
9156;SDS011;4613;48.392;9.998;2022-08-02T03:34:52;7.30;;;6.13;;
9156;SDS011;4613;48.392;9.998;2022-08-02T03:37:23;8.77;;;7.07;;
9156;SDS011;4613;48.392;9.998;2022-08-02T03:39:56;9.70;;;6.97;;
9156;SDS011;4613;48.392;9.998;2022-08-02T03:42:28;7.97;;;6.33;;
9156;SDS011;4613;48.392;9.998;2022-08-02T03:44:59;9.70;;;6.97;;
9156;SDS011;4613;48.392;9.998;2022-08-02T03:47:32;10.37;;;6.27;;
9156;SDS011;4613;48.392;9.998;2022-08-02T03:50:04;11.63;;;7.50;;
9156;SDS011;4613;48.392;9.998;2022-08-02T03:52:41;17.50;;;11.37;;
9156;SDS011;4613;48.392;9.998;2022-08-02T03:55:14;7.63;;;6.77;;
9156;SDS011;4613;48.392;9.998;2022-08-02T03:57:45;13.70;;;8.03;;
9156;SDS011;4613;48.392;9.998;2022-08-02T04:00:18;10.77;;;7.47;;
9156;SDS011;4613;48.392;9.998;2022-08-02T04:02:50;8.97;;;7.63;;
9156;SDS011;4613;48.392;9.998;2022-08-02T04:05:21;10.63;;;7.60;;
9156;SDS011;4613;48.392;9.998;2022-08-02T04:07:53;12.17;;;7.80;;
9156;SDS011;4613;48.392;9.998;2022-08-02T04:10:23;10.43;;;7.27;;
9156;SDS011;4613;48.392;9.998;2022-08-02T04:12:55;8.57;;;6.70;;
9156;SDS011;4613;48.392;9.998;2022-08-02T04:15:27;9.13;;;6.47;;
9156;SDS011;4613;48.392;9.998;2022-08-02T04:17:58;8.87;;;7.67;;
9156;SDS011;4613;48.392;9.998;2022-08-02T04:20:32;9.90;;;7.30;;
9156;SDS011;4613;48.392;9.998;2022-08-02T04:23:06;8.43;;;7.27;;
9156;SDS011;4613;48.392;9.998;2022-08-02T04:25:39;9.53;;;7.83;;
9156;SDS011;4613;48.392;9.998;2022-08-02T04:28:11;11.23;;;7.90;;
9156;SDS011;4613;48.392;9.998;2022-08-02T04:30:45;10.43;;;7.63;;
9156;SDS011;4613;48.392;9.998;2022-08-02T04:33:17;10.40;;;7.07;;
9156;SDS011;4613;48.392;9.998;2022-08-02T04:35:48;8.03;;;6.87;;
9156;SDS011;4613;48.392;9.998;2022-08-02T04:38:19;9.50;;;7.73;;
9156;SDS011;4613;48.392;9.998;2022-08-02T04:40:51;7.67;;;6.87;;
9156;SDS011;4613;48.392;9.998;2022-08-02T04:43:23;10.30;;;7.80;;
9156;SDS011;4613;48.392;9.998;2022-08-02T04:45:54;9.57;;;7.27;;
9156;SDS011;4613;48.392;9.998;2022-08-02T04:48:25;9.33;;;7.50;;
9156;SDS011;4613;48.392;9.998;2022-08-02T04:50:56;10.73;;;7.47;;
9156;SDS011;4613;48.392;9.998;2022-08-02T04:53:27;10.50;;;8.30;;
9156;SDS011;4613;48.392;9.998;2022-08-02T04:55:58;10.53;;;8.70;;
9156;SDS011;4613;48.392;9.998;2022-08-02T04:58:29;10.73;;;9.37;;
9156;SDS011;4613;48.392;9.998;2022-08-02T05:01:00;10.33;;;8.53;;
9156;SDS011;4613;48.392;9.998;2022-08-02T05:03:31;9.93;;;8.47;;
9156;SDS011;4613;48.392;9.998;2022-08-02T05:06:02;11.67;;;9.43;;
9156;SDS011;4613;48.392;9.998;2022-08-02T05:08:33;12.70;;;9.73;;
9156;SDS011;4613;48.392;9.998;2022-08-02T05:11:04;10.87;;;9.10;;
9156;SDS011;4613;48.392;9.998;2022-08-02T05:13:34;14.97;;;9.60;;
9156;SDS011;4613;48.392;9.998;2022-08-02T05:16:06;14.27;;;9.93;;
9156;SDS011;4613;48.392;9.998;2022-08-02T05:18:37;14.83;;;9.77;;
9156;SDS011;4613;48.392;9.998;2022-08-02T05:21:09;11.47;;;9.40;;
9156;SDS011;4613;48.392;9.998;2022-08-02T05:23:39;12.50;;;9.57;;
9156;SDS011;4613;48.392;9.998;2022-08-02T05:26:10;11.63;;;9.00;;
9156;SDS011;4613;48.392;9.998;2022-08-02T05:28:41;11.87;;;9.30;;
9156;SDS011;4613;48.392;9.998;2022-08-02T05:31:12;9.87;;;8.87;;
9156;SDS011;4613;48.392;9.998;2022-08-02T05:33:43;8.70;;;7.50;;
9156;SDS011;4613;48.392;9.998;2022-08-02T05:36:14;9.17;;;7.83;;
9156;SDS011;4613;48.392;9.998;2022-08-02T05:38:44;9.53;;;7.90;;
9156;SDS011;4613;48.392;9.998;2022-08-02T05:41:16;9.47;;;8.53;;
9156;SDS011;4613;48.392;9.998;2022-08-02T05:43:48;10.43;;;8.47;;
9156;SDS011;4613;48.392;9.998;2022-08-02T05:46:20;10.77;;;7.70;;
9156;SDS011;4613;48.392;9.998;2022-08-02T05:48:51;8.50;;;7.60;;
9156;SDS011;4613;48.392;9.998;2022-08-02T05:51:23;8.00;;;6.80;;
9156;SDS011;4613;48.392;9.998;2022-08-02T05:56:44;9.20;;;7.10;;
9156;SDS011;4613;48.392;9.998;2022-08-02T05:59:34;10.13;;;7.13;;
9156;SDS011;4613;48.392;9.998;2022-08-02T06:02:28;7.60;;;6.90;;
9156;SDS011;4613;48.392;9.998;2022-08-02T06:05:10;8.80;;;7.90;;
9156;SDS011;4613;48.392;9.998;2022-08-02T06:08:02;8.43;;;7.63;;
9156;SDS011;4613;48.392;9.998;2022-08-02T06:10:37;8.83;;;7.07;;
9156;SDS011;4613;48.392;9.998;2022-08-02T06:13:11;9.33;;;7.70;;
9156;SDS011;4613;48.392;9.998;2022-08-02T06:15:45;11.13;;;8.53;;
9156;SDS011;4613;48.392;9.998;2022-08-02T06:18:22;13.93;;;10.33;;
9156;SDS011;4613;48.392;9.998;2022-08-02T06:20:57;17.37;;;10.90;;
9156;SDS011;4613;48.392;9.998;2022-08-02T06:23:30;18.07;;;11.67;;
9156;SDS011;4613;48.392;9.998;2022-08-02T06:26:02;14.00;;;10.67;;
9156;SDS011;4613;48.392;9.998;2022-08-02T06:28:36;15.37;;;10.33;;
9156;SDS011;4613;48.392;9.998;2022-08-02T06:31:08;12.23;;;9.77;;
9156;SDS011;4613;48.392;9.998;2022-08-02T06:33:39;12.87;;;8.57;;
9156;SDS011;4613;48.392;9.998;2022-08-02T06:36:26;8.90;;;8.00;;
9156;SDS011;4613;48.392;9.998;2022-08-02T06:39:13;7.63;;;6.83;;
9156;SDS011;4613;48.392;9.998;2022-08-02T06:41:48;7.33;;;6.57;;
9156;SDS011;4613;48.392;9.998;2022-08-02T06:44:28;8.03;;;6.23;;
9156;SDS011;4613;48.392;9.998;2022-08-02T06:46:59;7.90;;;6.40;;
9156;SDS011;4613;48.392;9.998;2022-08-02T06:49:30;7.03;;;6.33;;
9156;SDS011;4613;48.392;9.998;2022-08-02T06:52:01;6.40;;;5.70;;
9156;SDS011;4613;48.392;9.998;2022-08-02T06:54:33;6.70;;;6.10;;
9156;SDS011;4613;48.392;9.998;2022-08-02T06:57:05;6.40;;;5.80;;
9156;SDS011;4613;48.392;9.998;2022-08-02T06:59:37;6.30;;;5.70;;
9156;SDS011;4613;48.392;9.998;2022-08-02T07:02:08;8.30;;;6.30;;
9156;SDS011;4613;48.392;9.998;2022-08-02T07:04:41;8.93;;;6.70;;
9156;SDS011;4613;48.392;9.998;2022-08-02T07:07:12;9.03;;;6.37;;
9156;SDS011;4613;48.392;9.998;2022-08-02T07:09:43;8.20;;;6.17;;
9156;SDS011;4613;48.392;9.998;2022-08-02T07:12:14;9.80;;;6.90;;
9156;SDS011;4613;48.392;9.998;2022-08-02T07:14:44;6.80;;;6.20;;
9156;SDS011;4613;48.392;9.998;2022-08-02T07:17:15;7.87;;;6.20;;
9156;SDS011;4613;48.392;9.998;2022-08-02T07:19:46;6.50;;;5.90;;
9156;SDS011;4613;48.392;9.998;2022-08-02T07:22:17;7.17;;;6.30;;
9156;SDS011;4613;48.392;9.998;2022-08-02T07:24:53;7.83;;;6.33;;
9156;SDS011;4613;48.392;9.998;2022-08-02T07:27:26;6.57;;;5.97;;
9156;SDS011;4613;48.392;9.998;2022-08-02T07:29:57;6.50;;;5.50;;
9156;SDS011;4613;48.392;9.998;2022-08-02T07:32:28;5.73;;;5.23;;
9156;SDS011;4613;48.392;9.998;2022-08-02T07:35:01;4.70;;;4.30;;
9156;SDS011;4613;48.392;9.998;2022-08-02T07:37:33;5.07;;;4.57;;
9156;SDS011;4613;48.392;9.998;2022-08-02T07:40:05;5.73;;;4.70;;
9156;SDS011;4613;48.392;9.998;2022-08-02T07:42:36;5.07;;;4.57;;
9156;SDS011;4613;48.392;9.998;2022-08-02T07:45:08;5.70;;;4.90;;
9156;SDS011;4613;48.392;9.998;2022-08-02T07:47:39;4.30;;;4.00;;
9156;SDS011;4613;48.392;9.998;2022-08-02T07:50:12;4.40;;;4.00;;
9156;SDS011;4613;48.392;9.998;2022-08-02T07:52:44;4.60;;;4.20;;
9156;SDS011;4613;48.392;9.998;2022-08-02T07:55:16;4.90;;;4.50;;
9156;SDS011;4613;48.392;9.998;2022-08-02T07:57:47;4.67;;;4.10;;
9156;SDS011;4613;48.392;9.998;2022-08-02T08:00:18;4.57;;;3.80;;
9156;SDS011;4613;48.392;9.998;2022-08-02T08:02:49;3.53;;;3.23;;
9156;SDS011;4613;48.392;9.998;2022-08-02T08:05:20;3.50;;;3.17;;
9156;SDS011;4613;48.392;9.998;2022-08-02T08:07:51;4.30;;;3.60;;
9156;SDS011;4613;48.392;9.998;2022-08-02T08:10:21;4.93;;;2.90;;
9156;SDS011;4613;48.392;9.998;2022-08-02T08:12:52;3.60;;;3.30;;
9156;SDS011;4613;48.392;9.998;2022-08-02T08:15:24;5.17;;;2.90;;
9156;SDS011;4613;48.392;9.998;2022-08-02T08:17:55;3.60;;;3.30;;
9156;SDS011;4613;48.392;9.998;2022-08-02T08:20:26;3.00;;;2.80;;
9156;SDS011;4613;48.392;9.998;2022-08-02T08:22:57;2.80;;;2.60;;
9156;SDS011;4613;48.392;9.998;2022-08-02T08:25:27;5.63;;;3.07;;
9156;SDS011;4613;48.392;9.998;2022-08-02T08:27:58;3.00;;;2.80;;
9156;SDS011;4613;48.392;9.998;2022-08-02T08:30:29;2.87;;;2.67;;
9156;SDS011;4613;48.392;9.998;2022-08-02T08:33:00;3.10;;;2.80;;
9156;SDS011;4613;48.392;9.998;2022-08-02T08:35:32;4.17;;;2.90;;
9156;SDS011;4613;48.392;9.998;2022-08-02T08:38:03;3.87;;;3.00;;
9156;SDS011;4613;48.392;9.998;2022-08-02T08:40:35;3.73;;;3.00;;
9156;SDS011;4613;48.392;9.998;2022-08-02T08:43:06;3.30;;;3.00;;
9156;SDS011;4613;48.392;9.998;2022-08-02T08:45:38;2.60;;;2.40;;
9156;SDS011;4613;48.392;9.998;2022-08-02T08:48:11;3.23;;;2.93;;
9156;SDS011;4613;48.392;9.998;2022-08-02T08:53:20;5.30;;;3.23;;
9156;SDS011;4613;48.392;9.998;2022-08-02T08:55:55;3.27;;;2.90;;
9156;SDS011;4613;48.392;9.998;2022-08-02T08:58:27;3.47;;;2.70;;
9156;SDS011;4613;48.392;9.998;2022-08-02T09:00:58;2.83;;;2.53;;
9156;SDS011;4613;48.392;9.998;2022-08-02T09:03:29;2.83;;;2.20;;
9156;SDS011;4613;48.392;9.998;2022-08-02T09:06:01;3.10;;;2.40;;
9156;SDS011;4613;48.392;9.998;2022-08-02T09:08:32;2.67;;;2.47;;
9156;SDS011;4613;48.392;9.998;2022-08-02T09:11:10;3.00;;;2.80;;
9156;SDS011;4613;48.392;9.998;2022-08-02T09:13:48;2.60;;;2.40;;
9156;SDS011;4613;48.392;9.998;2022-08-02T09:16:36;6.00;;;2.63;;
9156;SDS011;4613;48.392;9.998;2022-08-02T09:19:15;3.63;;;2.33;;
9156;SDS011;4613;48.392;9.998;2022-08-02T09:22:00;3.10;;;2.80;;
9156;SDS011;4613;48.392;9.998;2022-08-02T09:24:41;2.50;;;2.30;;
9156;SDS011;4613;48.392;9.998;2022-08-02T09:27:19;3.53;;;2.40;;
9156;SDS011;4613;48.392;9.998;2022-08-02T09:29:52;3.40;;;2.37;;
9156;SDS011;4613;48.392;9.998;2022-08-02T09:32:23;3.47;;;2.00;;
9156;SDS011;4613;48.392;9.998;2022-08-02T09:34:58;3.10;;;2.17;;
9156;SDS011;4613;48.392;9.998;2022-08-02T09:37:29;2.00;;;1.90;;
9156;SDS011;4613;48.392;9.998;2022-08-02T09:40:00;4.37;;;1.90;;
9156;SDS011;4613;48.392;9.998;2022-08-02T09:42:34;5.43;;;1.97;;
9156;SDS011;4613;48.392;9.998;2022-08-02T09:45:05;4.60;;;2.83;;
9156;SDS011;4613;48.392;9.998;2022-08-02T09:47:36;3.93;;;2.27;;
9156;SDS011;4613;48.392;9.998;2022-08-02T09:50:07;4.27;;;1.97;;
9156;SDS011;4613;48.392;9.998;2022-08-02T09:52:38;1.67;;;1.57;;
9156;SDS011;4613;48.392;9.998;2022-08-02T09:55:12;1.60;;;1.50;;
9156;SDS011;4613;48.392;9.998;2022-08-02T09:57:43;1.60;;;1.50;;
9156;SDS011;4613;48.392;9.998;2022-08-02T10:00:14;3.97;;;1.80;;
9156;SDS011;4613;48.392;9.998;2022-08-02T10:03:05;1.70;;;1.60;;
9156;SDS011;4613;48.392;9.998;2022-08-02T10:05:46;3.47;;;1.90;;
9156;SDS011;4613;48.392;9.998;2022-08-02T10:08:19;1.60;;;1.50;;
9156;SDS011;4613;48.392;9.998;2022-08-02T10:10:50;1.60;;;1.50;;
9156;SDS011;4613;48.392;9.998;2022-08-02T10:13:30;1.30;;;1.30;;
9156;SDS011;4613;48.392;9.998;2022-08-02T10:16:02;1.73;;;1.60;;
9156;SDS011;4613;48.392;9.998;2022-08-02T10:18:35;2.63;;;1.60;;
9156;SDS011;4613;48.392;9.998;2022-08-02T10:21:09;3.93;;;1.70;;
9156;SDS011;4613;48.392;9.998;2022-08-02T10:23:46;2.80;;;1.30;;
9156;SDS011;4613;48.392;9.998;2022-08-02T10:26:19;1.60;;;1.50;;
9156;SDS011;4613;48.392;9.998;2022-08-02T10:28:50;1.87;;;1.40;;
9156;SDS011;4613;48.392;9.998;2022-08-02T10:31:24;1.50;;;1.40;;
9156;SDS011;4613;48.392;9.998;2022-08-02T10:33:58;1.47;;;1.37;;
9156;SDS011;4613;48.392;9.998;2022-08-02T10:36:32;1.43;;;1.33;;
9156;SDS011;4613;48.392;9.998;2022-08-02T10:39:06;2.13;;;1.43;;
9156;SDS011;4613;48.392;9.998;2022-08-02T10:44:27;1.57;;;1.40;;
9156;SDS011;4613;48.392;9.998;2022-08-02T10:52:22;1.30;;;1.20;;
9156;SDS011;4613;48.392;9.998;2022-08-02T10:54:58;2.43;;;1.57;;
9156;SDS011;4613;48.392;9.998;2022-08-02T10:57:31;2.30;;;1.37;;
9156;SDS011;4613;48.392;9.998;2022-08-02T11:02:53;3.67;;;1.63;;
9156;SDS011;4613;48.392;9.998;2022-08-02T11:05:31;1.93;;;1.50;;
9156;SDS011;4613;48.392;9.998;2022-08-02T11:08:21;9.27;;;1.80;;
9156;SDS011;4613;48.392;9.998;2022-08-02T11:11:27;1.93;;;1.63;;
9156;SDS011;4613;48.392;9.998;2022-08-02T11:13:58;2.27;;;1.43;;
9156;SDS011;4613;48.392;9.998;2022-08-02T11:19:25;2.73;;;2.40;;
9156;SDS011;4613;48.392;9.998;2022-08-02T11:24:31;1.47;;;1.47;;
9156;SDS011;4613;48.392;9.998;2022-08-02T11:27:08;3.87;;;1.60;;
9156;SDS011;4613;48.392;9.998;2022-08-02T11:29:48;1.50;;;1.40;;
9156;SDS011;4613;48.392;9.998;2022-08-02T11:34:52;1.30;;;1.30;;
9156;SDS011;4613;48.392;9.998;2022-08-02T11:37:30;1.77;;;1.67;;
9156;SDS011;4613;48.392;9.998;2022-08-02T11:40:05;1.87;;;1.40;;
9156;SDS011;4613;48.392;9.998;2022-08-02T11:42:41;2.73;;;1.50;;
9156;SDS011;4613;48.392;9.998;2022-08-02T11:45:14;1.67;;;1.57;;
9156;SDS011;4613;48.392;9.998;2022-08-02T11:47:46;2.57;;;1.60;;
9156;SDS011;4613;48.392;9.998;2022-08-02T11:50:22;1.77;;;1.67;;
9156;SDS011;4613;48.392;9.998;2022-08-02T11:53:13;4.03;;;2.23;;
9156;SDS011;4613;48.392;9.998;2022-08-02T11:55:45;1.57;;;1.47;;
9156;SDS011;4613;48.392;9.998;2022-08-02T11:58:16;8.07;;;1.50;;
9156;SDS011;4613;48.392;9.998;2022-08-02T12:00:47;12.30;;;1.70;;
9156;SDS011;4613;48.392;9.998;2022-08-02T12:03:18;2.73;;;1.80;;
9156;SDS011;4613;48.392;9.998;2022-08-02T12:05:49;11.77;;;2.30;;
9156;SDS011;4613;48.392;9.998;2022-08-02T12:08:20;2.87;;;1.60;;
9156;SDS011;4613;48.392;9.998;2022-08-02T12:10:53;1.90;;;1.70;;
9156;SDS011;4613;48.392;9.998;2022-08-02T12:13:24;4.00;;;1.50;;
9156;SDS011;4613;48.392;9.998;2022-08-02T12:15:55;1.87;;;1.43;;
9156;SDS011;4613;48.392;9.998;2022-08-02T12:18:47;1.60;;;1.50;;
9156;SDS011;4613;48.392;9.998;2022-08-02T12:24:50;1.60;;;1.50;;
9156;SDS011;4613;48.392;9.998;2022-08-02T12:30:04;1.60;;;1.50;;
9156;SDS011;4613;48.392;9.998;2022-08-02T12:32:45;3.17;;;1.30;;
9156;SDS011;4613;48.392;9.998;2022-08-02T12:35:17;3.10;;;1.50;;
9156;SDS011;4613;48.392;9.998;2022-08-02T12:37:52;1.97;;;1.50;;
9156;SDS011;4613;48.392;9.998;2022-08-02T12:43:02;2.77;;;1.50;;
9156;SDS011;4613;48.392;9.998;2022-08-02T12:45:45;1.63;;;1.53;;
9156;SDS011;4613;48.392;9.998;2022-08-02T12:51:20;1.50;;;1.40;;
9156;SDS011;4613;48.392;9.998;2022-08-02T12:53:53;1.67;;;1.57;;
9156;SDS011;4613;48.392;9.998;2022-08-02T12:59:02;1.40;;;1.30;;
9156;SDS011;4613;48.392;9.998;2022-08-02T13:01:33;1.57;;;1.47;;
9156;SDS011;4613;48.392;9.998;2022-08-02T13:04:05;1.50;;;1.40;;
9156;SDS011;4613;48.392;9.998;2022-08-02T13:06:36;2.00;;;1.50;;
9156;SDS011;4613;48.392;9.998;2022-08-02T13:09:14;2.20;;;1.80;;
9156;SDS011;4613;48.392;9.998;2022-08-02T13:11:46;2.50;;;1.80;;
9156;SDS011;4613;48.392;9.998;2022-08-02T13:14:17;1.60;;;1.50;;
9156;SDS011;4613;48.392;9.998;2022-08-02T13:16:48;1.93;;;1.80;;
9156;SDS011;4613;48.392;9.998;2022-08-02T13:19:19;1.33;;;1.30;;
9156;SDS011;4613;48.392;9.998;2022-08-02T13:21:50;1.60;;;1.50;;
9156;SDS011;4613;48.392;9.998;2022-08-02T13:24:21;1.93;;;1.63;;
9156;SDS011;4613;48.392;9.998;2022-08-02T13:26:52;2.73;;;1.40;;
9156;SDS011;4613;48.392;9.998;2022-08-02T13:29:23;1.63;;;1.53;;
9156;SDS011;4613;48.392;9.998;2022-08-02T13:31:54;1.50;;;1.40;;
9156;SDS011;4613;48.392;9.998;2022-08-02T13:34:25;1.93;;;1.77;;
9156;SDS011;4613;48.392;9.998;2022-08-02T13:36:56;1.50;;;1.40;;
9156;SDS011;4613;48.392;9.998;2022-08-02T13:39:27;1.37;;;1.30;;
9156;SDS011;4613;48.392;9.998;2022-08-02T13:41:58;1.40;;;1.30;;
9156;SDS011;4613;48.392;9.998;2022-08-02T13:44:29;1.60;;;1.50;;
9156;SDS011;4613;48.392;9.998;2022-08-02T13:47:00;1.50;;;1.40;;
9156;SDS011;4613;48.392;9.998;2022-08-02T13:49:32;1.77;;;1.47;;
9156;SDS011;4613;48.392;9.998;2022-08-02T13:52:03;1.80;;;1.50;;
9156;SDS011;4613;48.392;9.998;2022-08-02T13:54:35;2.17;;;1.97;;
9156;SDS011;4613;48.392;9.998;2022-08-02T13:57:06;2.03;;;1.60;;
9156;SDS011;4613;48.392;9.998;2022-08-02T13:59:37;2.13;;;1.40;;
9156;SDS011;4613;48.392;9.998;2022-08-02T14:02:07;1.40;;;1.40;;
9156;SDS011;4613;48.392;9.998;2022-08-02T14:04:38;1.63;;;1.40;;
9156;SDS011;4613;48.392;9.998;2022-08-02T14:07:09;1.40;;;1.30;;
9156;SDS011;4613;48.392;9.998;2022-08-02T14:09:40;2.03;;;1.60;;
9156;SDS011;4613;48.392;9.998;2022-08-02T14:12:12;1.60;;;1.50;;
9156;SDS011;4613;48.392;9.998;2022-08-02T14:14:43;1.90;;;1.80;;
9156;SDS011;4613;48.392;9.998;2022-08-02T14:17:14;2.00;;;1.50;;
9156;SDS011;4613;48.392;9.998;2022-08-02T14:19:47;2.27;;;1.40;;
9156;SDS011;4613;48.392;9.998;2022-08-02T14:22:19;2.73;;;1.50;;
9156;SDS011;4613;48.392;9.998;2022-08-02T14:24:50;3.23;;;1.50;;
9156;SDS011;4613;48.392;9.998;2022-08-02T14:27:21;2.07;;;1.43;;
9156;SDS011;4613;48.392;9.998;2022-08-02T14:29:53;3.07;;;1.73;;
9156;SDS011;4613;48.392;9.998;2022-08-02T14:32:26;2.90;;;1.50;;
9156;SDS011;4613;48.392;9.998;2022-08-02T14:34:57;2.57;;;1.57;;
9156;SDS011;4613;48.392;9.998;2022-08-02T14:37:28;1.70;;;1.60;;
9156;SDS011;4613;48.392;9.998;2022-08-02T14:39:59;2.70;;;1.50;;
9156;SDS011;4613;48.392;9.998;2022-08-02T14:42:30;3.00;;;2.60;;
9156;SDS011;4613;48.392;9.998;2022-08-02T14:45:01;1.83;;;1.60;;
9156;SDS011;4613;48.392;9.998;2022-08-02T14:47:32;2.40;;;1.37;;
9156;SDS011;4613;48.392;9.998;2022-08-02T14:50:03;1.20;;;1.10;;
9156;SDS011;4613;48.392;9.998;2022-08-02T14:52:34;2.53;;;1.30;;
9156;SDS011;4613;48.392;9.998;2022-08-02T14:55:06;1.33;;;1.30;;
9156;SDS011;4613;48.392;9.998;2022-08-02T14:57:37;1.60;;;1.20;;
9156;SDS011;4613;48.392;9.998;2022-08-02T15:00:08;2.60;;;1.50;;
9156;SDS011;4613;48.392;9.998;2022-08-02T15:02:39;1.43;;;1.37;;
9156;SDS011;4613;48.392;9.998;2022-08-02T15:05:10;1.63;;;1.40;;
9156;SDS011;4613;48.392;9.998;2022-08-02T15:07:41;1.30;;;1.20;;
9156;SDS011;4613;48.392;9.998;2022-08-02T15:10:12;1.40;;;1.30;;
9156;SDS011;4613;48.392;9.998;2022-08-02T15:12:43;2.60;;;1.50;;
9156;SDS011;4613;48.392;9.998;2022-08-02T15:15:13;1.90;;;1.63;;
9156;SDS011;4613;48.392;9.998;2022-08-02T15:17:44;1.40;;;1.40;;
9156;SDS011;4613;48.392;9.998;2022-08-02T15:20:15;2.50;;;1.70;;
9156;SDS011;4613;48.392;9.998;2022-08-02T15:22:46;2.50;;;1.50;;
9156;SDS011;4613;48.392;9.998;2022-08-02T15:25:17;1.30;;;1.20;;
9156;SDS011;4613;48.392;9.998;2022-08-02T15:27:48;1.60;;;1.50;;
9156;SDS011;4613;48.392;9.998;2022-08-02T15:30:19;2.17;;;1.40;;
9156;SDS011;4613;48.392;9.998;2022-08-02T15:32:50;1.37;;;1.27;;
9156;SDS011;4613;48.392;9.998;2022-08-02T15:35:21;4.77;;;1.77;;
9156;SDS011;4613;48.392;9.998;2022-08-02T15:37:52;1.50;;;1.40;;
9156;SDS011;4613;48.392;9.998;2022-08-02T15:40:23;1.50;;;1.40;;
9156;SDS011;4613;48.392;9.998;2022-08-02T15:42:55;3.13;;;1.57;;
9156;SDS011;4613;48.392;9.998;2022-08-02T15:45:27;4.43;;;2.83;;
9156;SDS011;4613;48.392;9.998;2022-08-02T15:47:58;2.07;;;1.73;;
9156;SDS011;4613;48.392;9.998;2022-08-02T15:50:29;2.90;;;1.77;;
9156;SDS011;4613;48.392;9.998;2022-08-02T15:53:00;2.00;;;1.60;;
9156;SDS011;4613;48.392;9.998;2022-08-02T15:55:31;1.70;;;1.60;;
9156;SDS011;4613;48.392;9.998;2022-08-02T15:58:02;1.60;;;1.50;;
9156;SDS011;4613;48.392;9.998;2022-08-02T16:00:33;1.57;;;1.47;;
9156;SDS011;4613;48.392;9.998;2022-08-02T16:03:04;1.57;;;1.47;;
9156;SDS011;4613;48.392;9.998;2022-08-02T16:05:35;1.77;;;1.53;;
9156;SDS011;4613;48.392;9.998;2022-08-02T16:08:06;1.57;;;1.30;;
9156;SDS011;4613;48.392;9.998;2022-08-02T16:10:37;2.23;;;1.63;;
9156;SDS011;4613;48.392;9.998;2022-08-02T16:13:08;1.50;;;1.40;;
9156;SDS011;4613;48.392;9.998;2022-08-02T16:15:58;1.37;;;1.37;;
9156;SDS011;4613;48.392;9.998;2022-08-02T16:18:29;3.70;;;1.40;;
9156;SDS011;4613;48.392;9.998;2022-08-02T16:20:59;1.50;;;1.40;;
9156;SDS011;4613;48.392;9.998;2022-08-02T16:23:30;2.10;;;2.00;;
9156;SDS011;4613;48.392;9.998;2022-08-02T16:26:01;1.30;;;1.30;;
9156;SDS011;4613;48.392;9.998;2022-08-02T16:28:32;1.80;;;1.40;;
9156;SDS011;4613;48.392;9.998;2022-08-02T16:31:03;2.50;;;1.50;;
9156;SDS011;4613;48.392;9.998;2022-08-02T16:33:53;1.50;;;1.40;;
9156;SDS011;4613;48.392;9.998;2022-08-02T16:36:25;1.50;;;1.40;;
9156;SDS011;4613;48.392;9.998;2022-08-02T16:38:57;1.70;;;1.60;;